Time;durP1;ratioP1;P1;durP2;ratioP2;P2;SDS_P1;SDS_P2;PMS_P1;PMS_P2;Temp;Humidity;BMP_temperature;BMP_pressure;BME280_temperature;BME280_humidity;BME280_pressure;Samples;Min_cycle;Max_cycle;Signal;HPM_P1;HPM_P2
2022/05/14 00:02:00;;;;;;;19.40;15.50;;;;;;;9.60;82.24;99065.41;2286907;78;21356;-80
2022/05/14 00:05:01;;;;;;;20.00;15.73;;;;;;;9.57;81.85;99064.04;2286313;78;20978;-80
2022/05/14 00:08:01;;;;;;;53.73;32.50;;;;;;;9.52;82.31;99060.01;2286872;78;20910;-79
2022/05/14 00:14:20;;;;;;;31.87;21.73;;;;;;;9.60;82.91;99070.61;2286683;78;20974;-79
2022/05/14 00:17:21;;;;;;;31.33;21.90;;;;;;;9.56;82.11;99069.67;2286652;78;20973;-79
2022/05/14 00:20:22;;;;;;;23.23;16.63;;;;;;;9.54;82.33;99071.80;2287030;78;20914;-79
2022/05/14 00:23:22;;;;;;;28.33;17.13;;;;;;;9.60;82.97;99072.34;2286802;78;20923;-80
2022/05/14 00:26:22;;;;;;;22.27;17.27;;;;;;;9.66;82.55;99075.06;2267864;76;20990;-79
2022/05/14 00:29:23;;;;;;;20.60;16.97;;;;;;;9.64;81.95;99068.95;2262981;78;21002;-80
2022/05/14 00:32:24;;;;;;;18.80;15.30;;;;;;;9.63;81.84;99077.19;2262519;79;21317;-79
2022/05/14 00:35:24;;;;;;;22.50;15.80;;;;;;;10.34;82.39;99073.70;2262940;78;20957;-80
2022/05/14 00:38:24;;;;;;;22.60;17.17;;;;;;;10.23;80.65;99071.34;2263059;78;20903;-80
2022/05/14 00:41:27;;;;;;;20.90;15.07;;;;;;;10.09;80.31;99071.08;2262921;78;21010;-80
2022/05/14 00:44:25;;;;;;;17.10;13.33;;;;;;;9.87;79.80;99076.34;2262838;78;20914;-79
2022/05/14 00:47:25;;;;;;;15.77;13.63;;;;;;;9.67;79.76;99080.73;2262525;78;20965;-79
2022/05/14 00:50:26;;;;;;;21.80;14.53;;;;;;;9.45;80.06;99081.58;2262864;78;21246;-80
2022/05/14 00:53:26;;;;;;;19.50;13.93;;;;;;;9.26;80.21;99089.45;2262702;78;20915;-80
2022/05/14 00:56:26;;;;;;;15.80;12.70;;;;;;;9.15;80.48;99080.95;2262428;78;21344;-80
2022/05/14 00:59:27;;;;;;;22.23;15.17;;;;;;;9.03;80.39;99076.78;2262158;78;21404;-79
2022/05/14 01:02:28;;;;;;;21.03;15.40;;;;;;;8.85;80.20;99084.66;2262039;78;20902;-79
2022/05/14 01:05:28;;;;;;;21.80;16.13;;;;;;;8.78;80.26;99085.78;2262548;78;20917;-80
2022/05/14 01:08:28;;;;;;;20.17;15.27;;;;;;;8.74;80.36;99082.23;2262533;78;20934;-80
2022/05/14 01:11:29;;;;;;;19.33;16.73;;;;;;;8.62;80.24;99079.31;2262520;79;20977;-79
2022/05/14 01:14:29;;;;;;;20.30;17.17;;;;;;;8.54;80.82;99076.95;2262519;78;20958;-80
2022/05/14 01:17:29;;;;;;;19.37;17.37;;;;;;;8.49;81.06;99078.56;2262358;78;21419;-80
2022/05/14 01:20:35;;;;;;;19.13;15.70;;;;;;;8.46;81.58;99082.40;2262479;79;20918;-80
2022/05/14 01:23:30;;;;;;;15.43;13.83;;;;;;;8.46;81.67;99082.40;2262050;78;20914;-80
2022/05/14 01:26:31;;;;;;;22.00;14.43;;;;;;;8.37;81.51;99084.36;2262753;78;21341;-80
2022/05/14 01:29:31;;;;;;;15.03;13.23;;;;;;;8.36;81.92;99083.02;2262863;78;20953;-80
2022/05/14 01:32:31;;;;;;;12.77;11.23;;;;;;;8.34;81.70;99076.90;2262922;78;20950;-80
2022/05/14 01:35:32;;;;;;;14.67;13.13;;;;;;;8.28;81.16;99073.27;2262992;78;20914;-81
2022/05/14 01:38:33;;;;;;;17.80;13.90;;;;;;;8.23;81.40;99082.69;2262632;78;20907;-81
2022/05/14 01:41:32;;;;;;;17.47;12.70;;;;;;;8.21;81.85;99081.77;2262893;78;20954;-81
2022/05/14 01:44:33;;;;;;;24.03;13.07;;;;;;;8.20;81.75;99090.41;2262520;79;21336;-81
2022/05/14 01:47:34;;;;;;;14.47;12.53;;;;;;;8.17;81.53;99086.44;2262413;79;20957;-80
2022/05/14 01:50:34;;;;;;;17.00;13.30;;;;;;;8.15;81.68;99084.22;2262835;79;20907;-80
2022/05/14 01:53:34;;;;;;;13.83;12.37;;;;;;;8.15;81.56;99084.22;2262515;78;21004;-80
2022/05/14 01:56:34;;;;;;;33.40;13.97;;;;;;;8.11;81.28;99085.40;2262810;78;20970;-80
2022/05/14 01:59:35;;;;;;;13.93;12.43;;;;;;;8.03;81.28;99081.73;2262727;78;21290;-81
2022/05/14 02:02:35;;;;;;;16.63;12.87;;;;;;;7.99;81.55;99082.06;2262701;78;20875;-81
2022/05/14 02:05:36;;;;;;;19.30;13.00;;;;;;;8.02;81.74;99082.56;2262834;78;20890;-80
2022/05/14 02:08:36;;;;;;;13.10;11.90;;;;;;;7.96;81.38;99085.89;2262628;78;20954;-80
2022/05/14 02:11:36;;;;;;;11.87;10.20;;;;;;;7.92;81.83;99088.83;2262791;78;20937;-80
2022/05/14 02:14:37;;;;;;;14.37;12.17;;;;;;;7.95;81.58;99090.62;2262477;78;21374;-80
2022/05/14 02:17:37;;;;;;;13.50;10.80;;;;;;;7.98;81.71;99095.91;2262284;79;20997;-80
2022/05/14 02:20:38;;;;;;;17.77;11.90;;;;;;;7.98;81.61;99101.11;2262347;78;20958;-80
2022/05/14 02:23:38;;;;;;;16.37;12.40;;;;;;;8.06;82.40;99102.60;2262659;78;20946;-80
2022/05/14 02:26:38;;;;;;;36.80;12.63;;;;;;;8.16;83.70;99097.67;2281462;78;21032;-79
2022/05/14 02:29:51;;;;;;;13.73;11.73;;;;;;;8.31;83.96;99092.86;2290229;77;21016;-79
2022/05/14 02:32:48;;;;;;;11.33;10.20;;;;;;;8.34;82.91;99091.20;2290047;77;21005;-79
2022/05/14 02:35:48;;;;;;;13.27;11.10;;;;;;;8.27;82.25;99087.13;2290066;77;20937;-78
2022/05/14 02:38:49;;;;;;;12.97;11.50;;;;;;;8.26;82.09;99089.27;2290220;77;21360;-80
2022/05/14 02:41:49;;;;;;;17.93;11.90;;;;;;;8.31;83.37;99086.77;2290249;78;20973;-79
2022/05/14 02:44:50;;;;;;;15.37;11.07;;;;;;;8.35;83.29;99082.56;2290042;77;21333;-79
2022/05/14 02:47:50;;;;;;;15.13;11.93;;;;;;;8.35;82.71;99083.44;2289967;78;20982;-79
2022/05/14 02:50:50;;;;;;;16.77;13.17;;;;;;;8.36;82.74;99087.80;2290267;78;20938;-79
2022/05/14 02:53:51;;;;;;;12.07;10.93;;;;;;;8.37;83.18;99093.87;2289814;77;21266;-79
2022/05/14 02:56:51;;;;;;;17.20;13.23;;;;;;;8.33;82.29;99091.63;2289816;78;20871;-79
2022/05/14 02:59:52;;;;;;;16.13;13.70;;;;;;;8.36;82.86;99089.52;2290125;77;20990;-79
2022/05/14 03:02:52;;;;;;;17.57;14.27;;;;;;;8.37;83.14;99087.37;2290227;77;20947;-80
2022/05/14 03:05:52;;;;;;;20.97;18.53;;;;;;;8.44;83.60;99084.08;2290283;78;21329;-80
2022/05/14 03:08:53;;;;;;;16.13;14.53;;;;;;;8.52;83.72;99088.63;2290616;78;20922;-80
2022/05/14 03:11:53;;;;;;;14.50;13.03;;;;;;;8.52;82.69;99089.05;2291038;77;20965;-80
2022/05/14 03:14:54;;;;;;;23.80;21.27;;;;;;;8.52;82.22;99100.34;2290281;78;20976;-80
2022/05/14 03:17:55;;;;;;;15.43;14.03;;;;;;;8.52;82.24;99102.94;2290111;77;20985;-80
2022/05/14 03:20:55;;;;;;;26.00;13.27;;;;;;;8.54;81.81;99100.38;2289019;77;21024;-80
2022/05/14 03:23:56;;;;;;;33.80;12.57;;;;;;;8.54;81.67;99096.47;2288872;78;20942;-81
2022/05/14 03:26:56;;;;;;;18.83;12.60;;;;;;;8.52;80.99;99099.45;2288839;78;21392;-80
2022/05/14 03:29:57;;;;;;;15.40;11.73;;;;;;;8.52;81.37;99089.92;2289261;78;20954;-81
2022/05/14 03:32:57;;;;;;;12.33;9.83;;;;;;;8.51;81.06;99092.49;2289147;78;20980;-79
2022/05/14 03:35:57;;;;;;;19.37;11.77;;;;;;;8.54;80.84;99095.17;2290438;77;20914;-81
2022/05/14 03:39:00;;;;;;;17.00;12.43;;;;;;;8.64;81.57;99095.84;2290434;77;20922;-79
2022/05/14 03:42:00;;;;;;;14.90;11.87;;;;;;;8.79;81.52;99095.34;2290469;78;21010;-79
2022/05/14 03:45:01;;;;;;;20.27;12.20;;;;;;;8.90;81.29;99097.77;2290150;78;20957;-80
2022/05/14 03:48:01;;;;;;;746.40;56.43;;;;;;;9.02;80.85;99099.77;2290283;77;21368;-76
2022/05/14 03:51:02;;;;;;;21.53;13.27;;;;;;;9.06;81.24;99101.17;2290116;78;20934;-79
2022/05/14 03:54:04;;;;;;;15.70;11.97;;;;;;;9.20;81.05;99094.95;2288543;78;21036;-78
2022/05/14 03:57:03;;;;;;;1498.63;116.80;;;;;;;9.27;80.84;99098.14;2288611;78;20969;-80
2022/05/14 04:00:06;;;;;;;45.00;14.03;;;;;;;9.37;80.83;99099.21;2288276;77;21350;-79
2022/05/14 04:03:04;;;;;;;22.77;14.60;;;;;;;9.50;80.87;99099.91;2290206;78;20966;-80
2022/05/14 04:06:07;;;;;;;27.73;23.73;;;;;;;9.58;80.58;99096.64;2290519;77;20898;-80
2022/05/14 04:09:07;;;;;;;28.57;24.30;;;;;;;9.69;80.39;99105.98;2290685;77;20989;-79
2022/05/14 04:12:08;;;;;;;25.97;22.33;;;;;;;9.81;80.17;99101.00;2289230;78;20973;-80
2022/05/14 04:15:08;;;;;;;25.47;15.97;;;;;;;9.94;79.52;99106.44;2289947;77;20965;-80
2022/05/14 04:18:09;;;;;;;26.20;13.90;;;;;;;10.11;79.14;99109.80;2290015;78;21009;-80
2022/05/14 04:21:10;;;;;;;20.57;10.87;;;;;;;10.31;78.78;99107.58;2287774;78;21016;-79
2022/05/14 04:24:09;;;;;;;22.03;15.47;;;;;;;10.55;78.51;99111.05;2288474;77;20978;-79
2022/05/14 04:27:10;;;;;;;32.30;20.43;;;;;;;10.73;77.93;99110.03;2285494;78;20977;-79
2022/05/14 04:30:10;;;;;;;14.63;10.93;;;;;;;10.95;77.49;99112.96;2284344;78;20946;-79
2022/05/14 04:33:10;;;;;;;13.17;9.90;;;;;;;10.98;76.14;99113.88;2284059;78;21534;-80
2022/05/14 04:36:12;;;;;;;15.27;10.20;;;;;;;11.09;75.54;99117.95;2284629;78;21294;-80
2022/05/14 04:39:14;;;;;;;17.73;11.37;;;;;;;11.31;75.58;99115.23;2284419;78;20977;-79
2022/05/14 04:42:13;;;;;;;27.53;12.67;;;;;;;11.49;74.49;99115.05;2290534;78;21009;-79
2022/05/14 04:45:14;;;;;;;19.92;12.98;;;;;;;11.67;74.28;99120.05;2282381;78;21041;-79
2022/05/14 04:48:14;;;;;;;18.65;14.75;;;;;;;11.87;73.72;99122.48;2282172;78;21036;-79
2022/05/14 04:51:15;;;;;;;16.20;13.80;;;;;;;12.03;73.10;99120.48;2282616;78;20942;-79
2022/05/14 04:54:15;;;;;;;16.05;8.93;;;;;;;12.25;72.16;99117.68;2282444;78;21005;-79
2022/05/14 04:57:15;;;;;;;19.70;13.30;;;;;;;12.37;71.62;99123.45;2283234;78;21025;-78
2022/05/14 05:00:16;;;;;;;23.62;14.65;;;;;;;12.56;70.61;99121.88;2286491;78;21002;-79
2022/05/14 05:03:16;;;;;;;22.05;14.33;;;;;;;12.75;70.88;99124.65;2284219;78;21029;-79
2022/05/14 05:06:18;;;;;;;17.75;10.10;;;;;;;12.91;70.13;99116.90;2283055;78;21413;-79
2022/05/14 05:09:17;;;;;;;17.77;10.95;;;;;;;13.11;70.02;99117.94;2282789;78;20971;-79
2022/05/14 05:12:17;;;;;;;17.87;10.58;;;;;;;13.25;68.64;99122.86;2284076;78;20971;-79
2022/05/14 05:15:18;;;;;;;18.02;11.50;;;;;;;13.32;68.36;99121.14;2283843;78;20957;-79
2022/05/14 05:18:18;;;;;;;17.67;12.10;;;;;;;13.38;67.63;99124.67;2285038;78;21017;-79
2022/05/14 05:21:19;;;;;;;13.10;8.98;;;;;;;13.47;67.39;99125.59;2287032;78;21001;-79
2022/05/14 05:24:22;;;;;;;15.45;8.65;;;;;;;13.64;67.02;99125.22;2286920;78;20957;-80
2022/05/14 05:27:22;;;;;;;13.48;8.33;;;;;;;13.91;66.58;99119.23;2289284;77;20970;-80
2022/05/14 05:30:22;;;;;;;14.85;9.20;;;;;;;14.27;65.26;99120.61;2287658;77;20984;-79
2022/05/14 05:33:23;;;;;;;13.55;7.03;;;;;;;14.63;65.08;99119.80;2287936;78;20973;-79
2022/05/14 05:36:23;;;;;;;9.88;6.90;;;;;;;14.76;64.34;99116.76;2287992;77;20933;-79
2022/05/14 05:39:23;;;;;;;9.20;6.70;;;;;;;14.94;63.94;99122.00;2288185;78;20981;-79
2022/05/14 05:42:24;;;;;;;9.73;5.95;;;;;;;15.01;62.64;99118.05;2287742;77;21009;-79
2022/05/14 05:45:24;;;;;;;11.68;7.62;;;;;;;15.02;62.65;99122.42;2288464;78;20977;-79
2022/05/14 05:48:25;;;;;;;15.70;7.87;;;;;;;15.09;62.29;99118.47;2288046;78;21021;-78
2022/05/14 05:51:25;;;;;;;11.68;6.83;;;;;;;15.04;62.85;99116.72;2288834;78;21336;-79
2022/05/14 05:57:45;;;;;;;14.50;6.37;;;;;;;15.23;62.35;99105.28;2288976;77;21021;-80
2022/05/14 06:00:45;;;;;;;13.55;6.60;;;;;;;15.41;61.95;99103.91;2289855;77;21360;-80
2022/05/14 06:03:46;;;;;;;9.70;5.05;;;;;;;15.57;61.61;99100.78;2290345;77;20922;-79
2022/05/14 06:06:46;;;;;;;8.33;4.35;;;;;;;15.77;61.19;99100.76;2289848;78;20954;-79
2022/05/14 06:09:47;;;;;;;16.02;6.87;;;;;;;15.86;59.73;99099.39;2289709;77;20926;-80
2022/05/14 06:12:47;;;;;;;12.60;5.65;;;;;;;16.03;60.82;99100.62;2289011;77;20985;-80
2022/05/14 06:15:47;;;;;;;10.60;4.78;;;;;;;16.18;60.64;99101.39;2289907;77;21210;-78
2022/05/14 06:18:47;;;;;;;11.90;4.97;;;;;;;16.42;60.14;99093.76;2287669;77;21020;-78
2022/05/14 06:21:48;;;;;;;7.65;4.67;;;;;;;16.61;59.48;99101.55;2287936;78;21317;-78
2022/05/14 06:24:48;;;;;;;11.78;5.25;;;;;;;16.80;58.54;99097.45;2288536;78;20965;-78
2022/05/14 06:27:49;;;;;;;8.00;4.95;;;;;;;17.04;58.45;99102.06;2288895;78;21001;-78
2022/05/14 06:30:51;;;;;;;11.75;4.67;;;;;;;17.07;55.94;99108.17;2289388;78;21056;-79
2022/05/14 06:33:52;;;;;;;10.37;4.53;;;;;;;17.02;56.76;99106.48;2288270;77;20946;-80
2022/05/14 06:36:52;;;;;;;8.38;4.37;;;;;;;17.03;55.19;99113.05;2287685;77;21548;-81
2022/05/14 06:39:52;;;;;;;16.00;4.58;;;;;;;17.06;54.97;99116.98;2289221;77;20930;-81
2022/05/14 06:42:53;;;;;;;10.05;4.22;;;;;;;17.19;55.45;99116.41;2288630;77;20986;-80
2022/05/14 06:45:53;;;;;;;5.50;3.40;;;;;;;17.32;56.08;99115.39;2288620;78;20978;-80
2022/05/14 06:48:54;;;;;;;7.62;4.05;;;;;;;17.57;54.67;99102.81;2289328;77;20954;-80
2022/05/14 06:51:54;;;;;;;10.13;5.05;;;;;;;17.57;54.21;99104.13;2288747;78;21987;-81
2022/05/14 06:54:54;;;;;;;6.72;3.10;;;;;;;17.61;54.73;99102.33;2288954;77;20957;-81
2022/05/14 06:57:55;;;;;;;6.85;3.60;;;;;;;17.69;52.89;99105.33;2288410;77;20887;-81
2022/05/14 07:00:55;;;;;;;7.03;2.98;;;;;;;17.72;53.23;99101.34;2287624;78;21156;-81
2022/05/14 07:07:17;;;;;;;7.30;3.22;;;;;;;17.91;50.29;99113.84;2288004;77;20970;-81
2022/05/14 07:10:15;;;;;;;7.10;2.90;;;;;;;17.81;51.13;99103.86;2287959;77;20981;-81
2022/05/14 07:13:15;;;;;;;8.78;3.17;;;;;;;17.72;50.03;99102.66;2288528;78;20980;-81
2022/05/14 07:16:16;;;;;;;17.57;3.67;;;;;;;17.77;51.00;99104.79;2288263;78;20954;-80
2022/05/14 07:19:16;;;;;;;5.50;2.50;;;;;;;17.81;50.17;99106.94;2288008;77;20938;-80
2022/05/14 07:22:17;;;;;;;10.25;2.95;;;;;;;18.02;51.13;99095.22;2288393;77;20993;-81
2022/05/14 07:25:17;;;;;;;8.30;2.70;;;;;;;18.29;49.29;99101.45;2287932;78;21349;-81
2022/05/14 07:28:17;;;;;;;6.80;2.80;;;;;;;18.45;48.91;99095.02;2266362;77;20950;-81
2022/05/14 07:31:18;;;;;;;8.98;3.08;;;;;;;18.35;47.65;99096.07;2261860;78;20913;-80
2022/05/14 07:34:18;;;;;;;11.03;3.02;;;;;;;18.25;48.40;99093.14;2262278;78;20965;-79
2022/05/14 07:37:18;;;;;;;8.95;2.70;;;;;;;18.25;47.63;99094.91;2260392;78;20923;-80
2022/05/14 07:40:19;;;;;;;8.23;3.00;;;;;;;18.44;48.85;99091.09;2259879;78;20997;-80
2022/05/14 07:43:20;;;;;;;7.85;3.33;;;;;;;18.65;47.99;99083.28;2260713;78;20942;-80
2022/05/14 07:46:20;;;;;;;9.13;3.65;;;;;;;18.66;47.04;99079.74;2260717;78;21068;-80
2022/05/14 07:49:20;;;;;;;9.48;3.02;;;;;;;18.68;47.28;99067.37;2261179;79;21040;-80
2022/05/14 07:52:21;;;;;;;7.30;3.10;;;;;;;18.77;47.58;99059.28;2259421;78;20918;-80
2022/05/14 07:55:21;;;;;;;7.15;3.33;;;;;;;18.99;47.82;99059.30;2259105;78;20970;-80
2022/05/14 07:58:23;;;;;;;6.62;2.70;;;;;;;19.24;46.30;99054.90;2260195;79;21203;-81
2022/05/14 08:01:22;;;;;;;7.50;3.33;;;;;;;19.39;46.28;99051.95;2261307;78;20962;-80
2022/05/14 08:04:22;;;;;;;8.85;3.20;;;;;;;19.68;44.45;99058.86;2260575;78;20953;-81
2022/05/14 08:07:23;;;;;;;6.22;3.22;;;;;;;19.62;44.74;99052.38;2260504;78;21001;-81
2022/05/14 08:10:23;;;;;;;9.60;2.95;;;;;;;19.36;44.33;99052.88;2260392;78;21399;-80
2022/05/14 08:13:24;;;;;;;5.67;2.77;;;;;;;19.46;43.28;99042.97;2260019;78;20989;-80
2022/05/14 08:16:24;;;;;;;13.00;2.92;;;;;;;19.94;43.20;99050.38;2260068;78;20922;-80
2022/05/14 08:19:24;;;;;;;5.60;2.80;;;;;;;20.34;41.21;99050.30;2260789;78;20930;-80
2022/05/14 08:25:44;;;;;;;5.05;2.65;;;;;;;20.77;40.19;99038.64;2260604;78;20953;-81
2022/05/14 08:28:44;;;;;;;7.25;3.15;;;;;;;20.77;41.16;99034.66;2283994;78;20958;-81
2022/05/14 08:31:45;;;;;;;7.58;2.67;;;;;;;20.99;42.47;99025.25;2287616;77;20946;-80
2022/05/14 08:34:45;;;;;;;5.03;2.40;;;;;;;20.57;41.37;99029.01;2288269;77;21043;-80
2022/05/14 08:37:46;;;;;;;6.08;3.00;;;;;;;20.15;41.07;99033.55;2289832;77;20899;-80
2022/05/14 08:40:48;;;;;;;9.93;2.72;;;;;;;19.95;39.95;99046.81;2288975;77;21032;-80
2022/05/14 08:43:49;;;;;;;7.20;2.65;;;;;;;20.05;39.80;99044.83;2288082;77;20918;-80
2022/05/14 08:46:49;;;;;;;6.65;2.70;;;;;;;20.24;40.28;99043.48;2288002;78;20946;-80
2022/05/14 08:49:53;;;;;;;10.00;3.17;;;;;;;20.24;40.09;99046.59;2288380;77;21407;-79
2022/05/14 08:52:50;;;;;;;6.20;2.95;;;;;;;20.45;39.81;99055.37;2289705;78;20934;-80
2022/05/14 08:55:51;;;;;;;7.58;2.65;;;;;;;20.50;38.66;99047.31;2289606;77;20978;-80
2022/05/14 08:58:51;;;;;;;7.15;2.85;;;;;;;20.34;39.81;99037.50;2289364;78;21912;-81
2022/05/14 09:01:51;;;;;;;4.45;2.33;;;;;;;20.92;39.66;99040.92;2288873;78;20970;-80
2022/05/14 09:04:52;;;;;;;7.47;2.60;;;;;;;21.21;37.47;99040.58;2289849;78;20887;-80
2022/05/14 09:07:52;;;;;;;9.18;2.90;;;;;;;21.01;38.91;99037.16;2289737;78;21332;-80
2022/05/14 09:10:54;;;;;;;6.60;2.58;;;;;;;20.94;38.40;99044.41;2289824;78;20879;-80
2022/05/14 09:13:54;;;;;;;7.03;2.70;;;;;;;21.05;37.86;99044.58;2288571;78;21016;-81
2022/05/14 09:16:53;;;;;;;6.37;2.47;;;;;;;21.12;38.46;99039.52;2287362;77;21402;-80
2022/05/14 09:19:54;;;;;;;9.13;2.85;;;;;;;21.05;37.05;99037.94;2287348;77;21192;-80
2022/05/14 09:22:54;;;;;;;8.78;2.80;;;;;;;20.74;38.50;99032.55;2287458;78;20962;-81
2022/05/14 09:25:54;;;;;;;10.13;3.15;;;;;;;20.41;37.81;99033.83;2287720;78;20977;-79
2022/05/14 09:28:55;;;;;;;8.43;3.45;;;;;;;20.09;38.76;99040.33;2285125;77;20931;-80
2022/05/14 09:31:55;;;;;;;5.70;3.10;;;;;;;20.44;39.95;99038.18;2283819;78;21337;-81
2022/05/14 09:34:56;;;;;;;6.37;2.92;;;;;;;20.46;38.60;99041.67;2285027;78;20966;-82
2022/05/14 09:37:56;;;;;;;4.42;2.55;;;;;;;20.26;38.99;99042.99;2285194;78;20974;-81
2022/05/14 09:41:01;;;;;;;6.25;2.50;;;;;;;20.80;38.40;99029.73;2284990;78;21373;-81
2022/05/14 09:44:02;;;;;;;9.70;2.90;;;;;;;20.80;37.42;99030.61;2263772;78;21337;-79
2022/05/14 09:47:02;;;;;;;5.00;2.55;;;;;;;20.72;37.30;99039.67;2285073;78;20950;-81
2022/05/14 09:50:03;;;;;;;8.28;3.02;;;;;;;20.23;37.52;99033.79;2284995;78;20986;-80
2022/05/14 09:53:03;;;;;;;11.48;3.08;;;;;;;19.87;38.69;99033.30;2285091;78;20950;-82
2022/05/14 09:56:04;;;;;;;10.23;3.22;;;;;;;19.53;40.04;99030.06;2285126;78;20887;-83
2022/05/14 09:59:07;;;;;;;6.60;3.27;;;;;;;19.22;41.21;99028.47;2284431;78;20986;-81
2022/05/14 10:02:07;;;;;;;7.22;2.95;;;;;;;19.55;41.32;99024.73;2284425;78;21225;-81
2022/05/14 10:05:07;;;;;;;6.37;2.77;;;;;;;20.24;40.36;99023.61;2284023;78;20926;-81
2022/05/14 10:08:08;;;;;;;11.00;3.27;;;;;;;20.63;39.45;99021.77;2284554;78;20989;-81
2022/05/14 10:11:08;;;;;;;6.35;2.80;;;;;;;20.21;38.63;99010.88;2284510;78;21029;-82
2022/05/14 10:14:09;;;;;;;10.43;3.30;;;;;;;19.64;40.96;99043.94;2284378;78;20986;-80
2022/05/14 10:17:09;;;;;;;9.00;3.47;;;;;;;19.11;41.34;99033.10;2284390;78;20962;-80
2022/05/14 10:20:10;;;;;;;7.87;3.20;;;;;;;19.32;42.43;99031.80;2284171;78;21033;-81
2022/05/14 10:26:47;;;;;;;9.43;3.35;;;;;;;20.23;37.49;99019.67;2284405;78;21962;-82
2022/05/14 10:29:47;;;;;;;9.23;2.90;;;;;;;20.70;37.37;99002.58;2284794;78;20954;-80
2022/05/14 10:32:48;;;;;;;6.10;2.55;;;;;;;21.48;37.60;98995.14;2283869;78;21474;-82
2022/05/14 10:35:48;;;;;;;7.33;2.50;;;;;;;21.69;33.93;98994.98;2282825;78;20997;-81
2022/05/14 10:38:50;;;;;;;7.97;3.10;;;;;;;21.28;34.97;98995.72;2283802;78;20986;-81
2022/05/14 10:41:49;;;;;;;12.70;2.87;;;;;;;20.83;35.21;99016.42;2283232;78;20966;-81
2022/05/14 10:44:49;;;;;;;5.30;2.55;;;;;;;20.52;35.20;99003.94;2283652;78;21040;-81
2022/05/14 10:47:50;;;;;;;7.75;3.08;;;;;;;20.32;35.36;99004.41;2283417;78;20973;-82
2022/05/14 10:50:50;;;;;;;7.10;3.12;;;;;;;20.15;36.37;99001.30;2283048;78;21386;-81
2022/05/14 10:53:51;;;;;;;6.12;2.80;;;;;;;20.16;36.55;99008.34;2283338;78;20970;-82
2022/05/14 10:56:51;;;;;;;10.20;3.08;;;;;;;20.18;35.95;99027.73;2284430;78;20966;-83
2022/05/14 10:59:51;;;;;;;5.28;2.90;;;;;;;20.22;36.23;99017.47;2285285;78;21341;-82
2022/05/14 11:02:52;;;;;;;5.60;2.67;;;;;;;20.62;36.41;99006.77;2286480;78;20875;-81
2022/05/14 11:05:52;;;;;;;5.62;2.50;;;;;;;21.05;35.83;99008.29;2285274;78;20871;-82
2022/05/14 11:08:53;;;;;;;6.33;2.60;;;;;;;20.89;35.74;98997.23;2284843;78;21298;-81
2022/05/14 11:11:53;;;;;;;7.85;2.65;;;;;;;20.86;35.99;98999.09;2284473;78;20910;-80
2022/05/14 11:14:53;;;;;;;10.32;3.62;;;;;;;20.77;35.66;99016.55;2283179;78;21188;-82
2022/05/14 11:17:54;;;;;;;12.18;2.80;;;;;;;20.83;36.25;99001.83;2282903;78;21242;-80
2022/05/14 11:20:54;;;;;;;12.58;3.62;;;;;;;20.83;36.30;99010.66;2283619;78;21018;-81
2022/05/14 11:23:55;;;;;;;8.05;3.40;;;;;;;20.73;35.97;98997.65;2283337;78;20938;-81
2022/05/14 11:26:55;;;;;;;6.33;2.72;;;;;;;20.69;35.89;99008.80;2284248;76;21428;-81
2022/05/14 11:29:55;;;;;;;6.83;2.85;;;;;;;20.84;36.03;98994.28;2286277;78;20923;-81
2022/05/14 11:32:56;;;;;;;10.65;3.60;;;;;;;21.04;36.33;99005.22;2286091;78;21009;-81
2022/05/14 11:35:56;;;;;;;7.12;2.92;;;;;;;20.95;36.41;98998.39;2285619;78;21306;-82
2022/05/14 11:38:56;;;;;;;8.68;3.25;;;;;;;20.76;36.15;98997.57;2286438;78;20953;-82
2022/05/14 11:41:57;;;;;;;6.70;2.87;;;;;;;20.79;36.91;98997.03;2285828;78;20997;-81
2022/05/14 11:44:57;;;;;;;9.45;3.22;;;;;;;21.07;36.34;98991.86;2286544;78;21369;-80
2022/05/14 11:47:58;;;;;;;8.18;3.35;;;;;;;21.18;35.70;98998.20;2286571;78;20914;-81
2022/05/14 11:51:01;;;;;;;9.23;3.10;;;;;;;21.13;36.84;98996.13;2286625;78;20927;-81
2022/05/14 11:54:01;;;;;;;7.72;2.75;;;;;;;21.35;35.82;98994.63;2286600;78;20947;-81
2022/05/14 11:57:02;;;;;;;7.37;2.83;;;;;;;21.38;35.03;98989.23;2286669;78;20962;-81
2022/05/14 12:00:03;;;;;;;5.92;2.90;;;;;;;21.36;35.39;98990.19;2286406;78;21306;-81
2022/05/14 12:03:03;;;;;;;7.28;3.50;;;;;;;21.74;35.50;98984.63;2285733;78;20926;-81
2022/05/14 12:06:03;;;;;;;4.70;2.40;;;;;;;21.96;32.93;99003.42;2285766;78;20922;-82
2022/05/14 12:09:04;;;;;;;6.58;2.90;;;;;;;21.80;33.11;98991.53;2285167;78;20977;-82
2022/05/14 12:12:04;;;;;;;6.55;2.67;;;;;;;21.57;34.03;98993.08;2285928;78;20977;-80
2022/05/14 12:15:04;;;;;;;11.33;2.85;;;;;;;21.46;33.93;98992.98;2284537;78;20982;-82
2022/05/14 12:18:05;;;;;;;5.53;2.65;;;;;;;21.24;34.89;98981.67;2284416;78;20961;-81
2022/05/14 12:21:05;;;;;;;11.08;2.90;;;;;;;21.41;34.05;98975.86;2284749;78;20983;-82
2022/05/14 12:24:06;;;;;;;7.12;2.80;;;;;;;21.65;35.28;98974.25;2284262;78;21333;-82
2022/05/14 12:27:06;;;;;;;11.57;3.08;;;;;;;21.83;34.15;98974.17;2284563;78;21013;-82
2022/05/14 12:30:06;;;;;;;15.98;3.62;;;;;;;21.58;34.52;98974.89;2289620;78;20903;-81
2022/05/14 12:33:13;;;;;;;5.67;3.15;;;;;;;21.47;33.90;98970.37;2289628;77;21311;-82
2022/05/14 12:36:13;;;;;;;5.03;2.95;;;;;;;21.41;33.21;98973.66;2289738;78;20945;-81
2022/05/14 12:39:14;;;;;;;9.98;3.05;;;;;;;21.26;33.10;98974.98;2289163;78;21356;-81
2022/05/14 12:42:15;;;;;;;9.33;3.47;;;;;;;21.86;32.71;98973.61;2289772;77;20950;-81
2022/05/14 12:45:14;;;;;;;10.40;3.42;;;;;;;21.86;32.71;98973.61;2289745;78;21280;-82
2022/05/14 12:48:15;;;;;;;7.35;2.98;;;;;;;21.81;33.29;98974.22;2289748;77;20942;-81
2022/05/14 12:51:15;;;;;;;8.10;3.83;;;;;;;22.09;33.12;98971.57;2288990;77;21024;-80
2022/05/14 12:54:16;;;;;;;9.20;3.20;;;;;;;22.19;32.51;98969.48;2289903;78;20970;-81
2022/05/14 12:57:16;;;;;;;4.53;3.05;;;;;;;22.21;33.07;98957.87;2289697;77;20958;-80
2022/05/14 13:00:17;;;;;;;8.10;3.65;;;;;;;21.94;33.25;98978.67;2289803;77;20992;-81
2022/05/14 13:03:17;;;;;;;7.70;3.60;;;;;;;21.84;33.71;98966.60;2289511;77;21272;-81
2022/05/14 13:06:17;;;;;;;5.67;2.95;;;;;;;22.07;33.62;98959.25;2289240;78;20977;-81
2022/05/14 13:09:18;;;;;;;13.30;3.40;;;;;;;21.94;33.07;98974.23;2288985;77;20922;-80
2022/05/14 13:12:18;;;;;;;6.30;3.67;;;;;;;21.73;33.93;98989.98;2289407;77;21322;-80
2022/05/14 13:15:18;;;;;;;9.70;3.67;;;;;;;21.47;33.48;98966.84;2289505;78;20910;-80
2022/05/14 13:18:19;;;;;;;11.30;3.35;;;;;;;21.40;34.54;98970.59;2289611;78;20922;-81
2022/05/14 13:21:19;;;;;;;6.87;3.42;;;;;;;21.20;35.38;98971.16;2289468;78;21321;-81
2022/05/14 13:24:20;;;;;;;8.95;3.33;;;;;;;21.11;35.27;98964.78;2289748;77;20918;-81
2022/05/14 13:27:20;;;;;;;9.18;3.05;;;;;;;21.09;34.97;98965.28;2290237;77;21222;-81
2022/05/14 13:30:20;;;;;;;8.00;3.85;;;;;;;21.26;34.74;98970.55;2286274;77;21013;-81
2022/05/14 13:33:21;;;;;;;10.18;3.62;;;;;;;21.32;34.97;98958.01;2286638;78;20938;-81
2022/05/14 13:39:40;;;;;;;4.72;2.95;;;;;;;21.59;34.25;98956.72;2286700;78;20946;-81
2022/05/14 13:42:41;;;;;;;5.67;3.10;;;;;;;21.82;34.61;98956.48;2286492;78;20998;-82
2022/05/14 13:45:41;;;;;;;12.37;3.80;;;;;;;21.62;34.56;98965.05;2286573;78;20918;-81
2022/05/14 13:48:42;;;;;;;11.80;3.67;;;;;;;20.99;35.18;98965.55;2286690;78;20985;-81
2022/05/14 13:51:42;;;;;;;7.85;3.95;;;;;;;20.55;36.22;98959.23;2286320;78;21329;-81
2022/05/14 13:54:42;;;;;;;9.03;3.80;;;;;;;20.31;36.62;98972.18;2286412;78;20982;-81
2022/05/14 13:57:43;;;;;;;8.35;4.25;;;;;;;20.26;37.16;98962.15;2286773;78;20893;-82
2022/05/14 14:00:43;;;;;;;8.85;3.90;;;;;;;20.24;37.12;98966.62;2286465;78;21026;-82
2022/05/14 14:03:44;;;;;;;9.15;4.22;;;;;;;20.34;37.28;98961.95;2286833;78;20953;-81
2022/05/14 14:06:44;;;;;;;9.30;3.90;;;;;;;20.52;37.11;98965.94;2286526;78;20910;-82
2022/05/14 14:09:44;;;;;;;7.87;4.42;;;;;;;20.34;37.23;98964.60;2286183;78;20941;-82
2022/05/14 14:12:45;;;;;;;12.20;3.92;;;;;;;20.26;37.48;98960.82;2284689;78;21024;-82
2022/05/14 14:15:45;;;;;;;7.45;3.95;;;;;;;20.42;37.87;98961.79;2285496;78;20973;-82
2022/05/14 14:18:47;;;;;;;9.03;3.72;;;;;;;20.60;37.03;98963.95;2286436;78;21045;-82
2022/05/14 14:21:46;;;;;;;15.85;4.03;;;;;;;20.83;37.09;98962.03;2286736;78;20966;-81
2022/05/14 14:24:49;;;;;;;11.35;4.40;;;;;;;20.62;37.63;98950.20;2286377;78;20963;-82